Monday, July 28, 2014, 12:12 AM EDT

KSEG, Selinsgrove Penn Valley Airport

Location: Selinsgrove, PA, United States Lat: 40.817
Local Time: 12:12 AM EDT ( 4:12 GMT) Lon: -76.867
Time Zone: US/Eastern Elev: 449 ft

Show me the last for .
Show Decoded

2014-07-27 23:53 METAR KSEG 280353Z AUTO 00000KT 8SM BKN090 20/19 A2965 RMK AO2 SLP035 T02000189
                 =
2014-07-27 23:01 METAR KSEG 280301Z AUTO 20003KT 7SM SCT007 OVC100 20/19 A2967 RMK AO2 T02000189
                 =
2014-07-27 22:53 METAR KSEG 280253Z AUTO 00000KT 7SM OVC110 20/19 A2968 RMK AO2 RAE44 SLP045
                 P0003 60019 T02000189 50006 =
2014-07-27 21:53 METAR KSEG 280153Z AUTO 19004KT 8SM -RA FEW070 SCT095 OVC120 20/19 A2972 RMK AO2
                 LTG DSNT NE-SE TSE06 SLP061 P0011 T02000189 =
2014-07-27 21:40 METAR KSEG 280140Z AUTO 17007KT 6SM -RA BR BKN065 BKN085 OVC110 20/18 A2972 RMK
                 AO2 LTG DSNT N-E TSE06 P0011 T02000183 =
2014-07-27 21:12 METAR KSEG 280112Z AUTO 29008G17KT 3SM VCTS RA BR SCT080 OVC100 20/19 A2974 RMK
                 AO2 LTG DSNT ALQDS TSE06 P0006 T02000189 =
2014-07-27 20:53 METAR KSEG 280053Z AUTO 26009G15KT 5SM TSRA BR SCT048 BKN065 OVC075 21/19 A2974
                 RMK AO2 LTG DSNT ALQDS RAB13 TSB32E47B51 PRESRR SLP067 P0005 T02110189 =
2014-07-27 20:38 METAR KSEG 280038Z AUTO 23006KT 4SM -TSRA BR BKN048 OVC060 22/20 A2970 RMK AO2
                 LTG DSNT ALQDS RAB13 TSB32 P0003 T02220200 =
2014-07-27 19:53 METAR KSEG 272353Z AUTO 18007KT 7SM FEW065 27/19 A2966 RMK AO2 LTG DSNT E-SW
                 SLP039 T02670194 10311 20261 55012 =
2014-07-27 18:53 METAR KSEG 272253Z AUTO 00000KT 6SM HZ CLR 26/23 A2965 RMK AO2 LTG DSNT S SLP037
                 T02610228 =
2014-07-27 17:53 METAR KSEG 272153Z AUTO VRB03KT 7SM CLR 29/19 A2967 RMK AO2 LTG DSNT SW SLP043
                 T02890194 =
2014-07-27 15:53 METAR KSEG 271953Z AUTO 00000KT 9SM SCT055 31/19 A2972 RMK AO2 SLP058 T03060189
                 =
2014-07-27 14:53 METAR KSEG 271853Z AUTO 00000KT 9SM BKN055 31/19 A2973 RMK AO2 SLP064 T03060189
                 =
2014-07-27 13:53 METAR KSEG 271753Z AUTO VRB03KT 9SM CLR 31/19 A2974 RMK AO2 SLP068 T03060189
                 10306 20217 56013 =
2014-07-27 12:53 METAR KSEG 271653Z AUTO VRB05KT 9SM FEW048 29/19 A2975 RMK AO2 SLP070 T02940189
                 =
2014-07-27 11:53 METAR KSEG 271553Z AUTO VRB04KT 9SM SCT034 SCT043 29/21 A2977 RMK AO2 SLP078
                 T02890206 =
2014-07-27 10:53 METAR KSEG 271453Z AUTO VRB04KT 9SM BKN034 BKN042 27/20 A2978 RMK AO2 SLP082
                 T02670200 58007 =
2014-07-27 09:53 METAR KSEG 271353Z AUTO VRB05KT 10SM BKN033 24/18 A2980 RMK AO2 SLP086 T02440183
                 =
2014-07-27 08:53 METAR KSEG 271253Z AUTO VRB05KT 9SM OVC039 22/18 A2980 RMK AO2 SLP088 T02220178
                 =
2014-07-27 07:53 METAR KSEG 271153Z AUTO 21005KT 9SM SCT037 OVC050 22/18 A2980 RMK AO2 SLP089
                 T02170178 10222 20178 53001 =
2014-07-27 06:53 METAR KSEG 271053Z AUTO VRB04KT 7SM BKN060 OVC080 21/17 A2980 RMK AO2 SLP087
                 T02060172 =
2014-07-27 05:53 METAR KSEG 270953Z AUTO 20003KT 8SM BKN060 OVC080 19/18 A2980 RMK AO2 SLP086
                 T01890178 =
2014-07-27 04:53 METAR KSEG 270853Z AUTO 00000KT 7SM CLR 18/17 A2980 RMK AO2 SLP088 T01830167
                 58010 =
2014-07-27 03:53 METAR KSEG 270753Z AUTO 00000KT 9SM CLR 19/17 A2982 RMK AO2 SLP094 T01890172 =
2014-07-27 02:53 METAR KSEG 270653Z AUTO 00000KT 9SM SCT120 19/18 A2983 RMK AO2 SLP096 T01890178
                 =
2014-07-27 01:53 METAR KSEG 270553Z AUTO 31003KT 10SM FEW040 FEW070 19/17 A2983 RMK AO2 SLP098
                 T01940172 10250 20194 58020 =
2014-07-27 00:53 METAR KSEG 270453Z AUTO 22004KT 10SM BKN100 23/16 A2986 RMK AO2 SLP109 T02280156
                 402830139 =

Support USWX by starting your Amazon purchase here.